sensor_id;sensor_type;location;lat;lon;timestamp;P1;durP1;ratioP1;P2;durP2;ratioP2
53674;SDS011;39574;50.534;8.500;2022-12-07T00:04:36;36.4;;;19.1;;
53674;SDS011;39574;50.534;8.500;2022-12-07T00:09:34;36.1;;;19.0;;
53674;SDS011;39574;50.534;8.500;2022-12-07T00:14:33;37.5;;;19.8;;
53674;SDS011;39574;50.534;8.500;2022-12-07T00:19:31;38.3;;;19.7;;
53674;SDS011;39574;50.534;8.500;2022-12-07T00:24:30;39.8;;;20.7;;
53674;SDS011;39574;50.534;8.500;2022-12-07T00:29:29;38.3;;;20.2;;
53674;SDS011;39574;50.534;8.500;2022-12-07T00:34:27;38.6;;;20.1;;
53674;SDS011;39574;50.534;8.500;2022-12-07T00:39:26;38.6;;;20.1;;
53674;SDS011;39574;50.534;8.500;2022-12-07T00:44:25;35.5;;;18.7;;
53674;SDS011;39574;50.534;8.500;2022-12-07T00:49:23;35.1;;;18.5;;
53674;SDS011;39574;50.534;8.500;2022-12-07T00:54:22;34.6;;;18.6;;
53674;SDS011;39574;50.534;8.500;2022-12-07T00:59:20;33.8;;;18.3;;
53674;SDS011;39574;50.534;8.500;2022-12-07T01:04:19;34.0;;;18.4;;
53674;SDS011;39574;50.534;8.500;2022-12-07T01:09:18;33.0;;;18.3;;
53674;SDS011;39574;50.534;8.500;2022-12-07T01:14:16;31.1;;;17.4;;
53674;SDS011;39574;50.534;8.500;2022-12-07T01:19:15;30.0;;;16.6;;
53674;SDS011;39574;50.534;8.500;2022-12-07T01:24:14;28.1;;;15.6;;
53674;SDS011;39574;50.534;8.500;2022-12-07T01:29:13;27.5;;;15.3;;
53674;SDS011;39574;50.534;8.500;2022-12-07T01:34:11;26.9;;;14.8;;
53674;SDS011;39574;50.534;8.500;2022-12-07T01:39:10;25.9;;;14.5;;
53674;SDS011;39574;50.534;8.500;2022-12-07T01:44:11;27.0;;;14.5;;
53674;SDS011;39574;50.534;8.500;2022-12-07T01:49:08;27.0;;;14.2;;
53674;SDS011;39574;50.534;8.500;2022-12-07T01:54:06;25.9;;;13.8;;
53674;SDS011;39574;50.534;8.500;2022-12-07T01:59:05;26.1;;;13.8;;
53674;SDS011;39574;50.534;8.500;2022-12-07T02:04:03;24.7;;;13.3;;
53674;SDS011;39574;50.534;8.500;2022-12-07T02:09:02;26.0;;;13.8;;
53674;SDS011;39574;50.534;8.500;2022-12-07T02:14:01;26.1;;;13.6;;
53674;SDS011;39574;50.534;8.500;2022-12-07T02:19:04;24.3;;;13.1;;
53674;SDS011;39574;50.534;8.500;2022-12-07T02:24:05;23.6;;;13.2;;
53674;SDS011;39574;50.534;8.500;2022-12-07T02:29:02;22.7;;;12.5;;
53674;SDS011;39574;50.534;8.500;2022-12-07T02:33:57;22.4;;;12.0;;
53674;SDS011;39574;50.534;8.500;2022-12-07T02:38:54;22.1;;;12.1;;
53674;SDS011;39574;50.534;8.500;2022-12-07T02:43:53;21.2;;;11.7;;
53674;SDS011;39574;50.534;8.500;2022-12-07T02:48:51;20.9;;;11.7;;
53674;SDS011;39574;50.534;8.500;2022-12-07T02:53:50;20.4;;;11.4;;
53674;SDS011;39574;50.534;8.500;2022-12-07T02:58:50;20.6;;;11.7;;
53674;SDS011;39574;50.534;8.500;2022-12-07T03:03:48;20.7;;;11.8;;
53674;SDS011;39574;50.534;8.500;2022-12-07T03:08:48;21.7;;;12.3;;
53674;SDS011;39574;50.534;8.500;2022-12-07T03:13:45;22.3;;;12.0;;
53674;SDS011;39574;50.534;8.500;2022-12-07T03:18:44;22.0;;;12.0;;
53674;SDS011;39574;50.534;8.500;2022-12-07T03:23:42;21.9;;;11.6;;
53674;SDS011;39574;50.534;8.500;2022-12-07T03:28:41;21.6;;;11.8;;
53674;SDS011;39574;50.534;8.500;2022-12-07T03:33:39;21.1;;;11.9;;
53674;SDS011;39574;50.534;8.500;2022-12-07T03:38:38;23.4;;;12.6;;
53674;SDS011;39574;50.534;8.500;2022-12-07T03:43:36;23.1;;;12.3;;
53674;SDS011;39574;50.534;8.500;2022-12-07T03:48:35;21.8;;;12.0;;
53674;SDS011;39574;50.534;8.500;2022-12-07T03:53:34;20.0;;;11.4;;
53674;SDS011;39574;50.534;8.500;2022-12-07T03:58:32;18.7;;;11.0;;
53674;SDS011;39574;50.534;8.500;2022-12-07T04:03:31;19.6;;;11.1;;
53674;SDS011;39574;50.534;8.500;2022-12-07T04:08:29;19.2;;;10.8;;
53674;SDS011;39574;50.534;8.500;2022-12-07T04:13:28;19.7;;;10.9;;
53674;SDS011;39574;50.534;8.500;2022-12-07T04:18:27;19.6;;;10.7;;
53674;SDS011;39574;50.534;8.500;2022-12-07T04:23:25;19.7;;;10.9;;
53674;SDS011;39574;50.534;8.500;2022-12-07T04:28:24;19.3;;;11.0;;
53674;SDS011;39574;50.534;8.500;2022-12-07T04:33:23;20.8;;;11.9;;
53674;SDS011;39574;50.534;8.500;2022-12-07T04:38:21;21.1;;;12.0;;
53674;SDS011;39574;50.534;8.500;2022-12-07T04:43:20;21.2;;;12.3;;
53674;SDS011;39574;50.534;8.500;2022-12-07T04:48:19;22.1;;;12.5;;
53674;SDS011;39574;50.534;8.500;2022-12-07T04:53:17;21.5;;;12.3;;
53674;SDS011;39574;50.534;8.500;2022-12-07T04:58:16;21.4;;;12.3;;
53674;SDS011;39574;50.534;8.500;2022-12-07T05:03:15;21.0;;;12.0;;
53674;SDS011;39574;50.534;8.500;2022-12-07T05:08:13;21.4;;;12.2;;
53674;SDS011;39574;50.534;8.500;2022-12-07T05:13:12;20.8;;;11.8;;
53674;SDS011;39574;50.534;8.500;2022-12-07T05:18:11;20.7;;;12.0;;
53674;SDS011;39574;50.534;8.500;2022-12-07T05:23:09;21.2;;;12.2;;
53674;SDS011;39574;50.534;8.500;2022-12-07T05:28:08;23.0;;;13.2;;
53674;SDS011;39574;50.534;8.500;2022-12-07T05:33:07;22.4;;;13.2;;
53674;SDS011;39574;50.534;8.500;2022-12-07T05:38:05;23.1;;;13.2;;
53674;SDS011;39574;50.534;8.500;2022-12-07T05:43:04;23.8;;;13.5;;
53674;SDS011;39574;50.534;8.500;2022-12-07T05:48:03;24.6;;;13.8;;
53674;SDS011;39574;50.534;8.500;2022-12-07T05:53:01;26.2;;;14.4;;
53674;SDS011;39574;50.534;8.500;2022-12-07T05:58:00;26.0;;;14.7;;
53674;SDS011;39574;50.534;8.500;2022-12-07T06:02:59;25.5;;;14.8;;
53674;SDS011;39574;50.534;8.500;2022-12-07T06:07:57;22.8;;;13.6;;
53674;SDS011;39574;50.534;8.500;2022-12-07T06:12:56;22.7;;;13.6;;
53674;SDS011;39574;50.534;8.500;2022-12-07T06:17:55;22.3;;;12.8;;
53674;SDS011;39574;50.534;8.500;2022-12-07T06:22:54;21.8;;;12.7;;
53674;SDS011;39574;50.534;8.500;2022-12-07T06:27:52;22.1;;;12.8;;
53674;SDS011;39574;50.534;8.500;2022-12-07T06:32:51;21.2;;;12.5;;
53674;SDS011;39574;50.534;8.500;2022-12-07T06:37:49;20.9;;;12.3;;
53674;SDS011;39574;50.534;8.500;2022-12-07T06:42:48;21.9;;;13.0;;
53674;SDS011;39574;50.534;8.500;2022-12-07T06:47:47;21.8;;;13.0;;
53674;SDS011;39574;50.534;8.500;2022-12-07T06:52:45;22.6;;;13.1;;
53674;SDS011;39574;50.534;8.500;2022-12-07T06:57:44;22.6;;;12.5;;
53674;SDS011;39574;50.534;8.500;2022-12-07T07:02:43;23.6;;;12.8;;
53674;SDS011;39574;50.534;8.500;2022-12-07T07:07:42;23.6;;;12.8;;
53674;SDS011;39574;50.534;8.500;2022-12-07T07:12:40;23.6;;;13.0;;
53674;SDS011;39574;50.534;8.500;2022-12-07T07:17:39;23.6;;;13.2;;
53674;SDS011;39574;50.534;8.500;2022-12-07T07:22:38;23.4;;;13.2;;
53674;SDS011;39574;50.534;8.500;2022-12-07T07:27:36;23.8;;;13.9;;
53674;SDS011;39574;50.534;8.500;2022-12-07T07:32:35;24.6;;;13.7;;
53674;SDS011;39574;50.534;8.500;2022-12-07T07:37:34;24.8;;;13.8;;
53674;SDS011;39574;50.534;8.500;2022-12-07T07:42:32;38.0;;;18.7;;
53674;SDS011;39574;50.534;8.500;2022-12-07T07:47:31;35.8;;;18.7;;
53674;SDS011;39574;50.534;8.500;2022-12-07T07:52:30;32.4;;;17.1;;
53674;SDS011;39574;50.534;8.500;2022-12-07T07:57:29;28.9;;;16.0;;
53674;SDS011;39574;50.534;8.500;2022-12-07T08:02:28;26.9;;;15.1;;
53674;SDS011;39574;50.534;8.500;2022-12-07T08:07:26;26.1;;;14.5;;
53674;SDS011;39574;50.534;8.500;2022-12-07T08:12:25;26.3;;;14.7;;
53674;SDS011;39574;50.534;8.500;2022-12-07T08:17:23;28.3;;;15.4;;
53674;SDS011;39574;50.534;8.500;2022-12-07T08:22:22;26.3;;;14.7;;
53674;SDS011;39574;50.534;8.500;2022-12-07T08:27:21;23.9;;;14.0;;
53674;SDS011;39574;50.534;8.500;2022-12-07T08:32:19;25.4;;;14.3;;
53674;SDS011;39574;50.534;8.500;2022-12-07T08:37:18;25.2;;;14.2;;
53674;SDS011;39574;50.534;8.500;2022-12-07T08:42:17;24.8;;;13.8;;
53674;SDS011;39574;50.534;8.500;2022-12-07T08:52:14;24.3;;;13.2;;
53674;SDS011;39574;50.534;8.500;2022-12-07T08:57:13;22.9;;;12.6;;
53674;SDS011;39574;50.534;8.500;2022-12-07T09:02:12;24.4;;;12.8;;
53674;SDS011;39574;50.534;8.500;2022-12-07T09:07:10;22.4;;;12.1;;
53674;SDS011;39574;50.534;8.500;2022-12-07T09:12:09;25.2;;;14.3;;
53674;SDS011;39574;50.534;8.500;2022-12-07T09:17:08;23.9;;;13.6;;
53674;SDS011;39574;50.534;8.500;2022-12-07T09:22:07;20.8;;;12.3;;
53674;SDS011;39574;50.534;8.500;2022-12-07T09:27:05;18.6;;;11.1;;
53674;SDS011;39574;50.534;8.500;2022-12-07T09:32:04;17.5;;;9.5;;
53674;SDS011;39574;50.534;8.500;2022-12-07T09:37:03;16.2;;;9.1;;
53674;SDS011;39574;50.534;8.500;2022-12-07T09:42:02;16.5;;;8.9;;
53674;SDS011;39574;50.534;8.500;2022-12-07T09:47:00;17.7;;;9.5;;
53674;SDS011;39574;50.534;8.500;2022-12-07T09:52:00;16.5;;;9.0;;
53674;SDS011;39574;50.534;8.500;2022-12-07T09:56:58;15.9;;;9.1;;
53674;SDS011;39574;50.534;8.500;2022-12-07T10:01:56;16.2;;;8.9;;
53674;SDS011;39574;50.534;8.500;2022-12-07T10:06:55;15.7;;;8.5;;
53674;SDS011;39574;50.534;8.500;2022-12-07T10:12:02;15.4;;;8.4;;
53674;SDS011;39574;50.534;8.500;2022-12-07T10:16:53;15.5;;;8.3;;
53674;SDS011;39574;50.534;8.500;2022-12-07T10:22:00;16.1;;;8.6;;
53674;SDS011;39574;50.534;8.500;2022-12-07T10:26:51;17.3;;;9.2;;
53674;SDS011;39574;50.534;8.500;2022-12-07T10:31:50;17.8;;;9.7;;
53674;SDS011;39574;50.534;8.500;2022-12-07T10:36:48;18.8;;;9.9;;
53674;SDS011;39574;50.534;8.500;2022-12-07T10:41:54;17.9;;;9.0;;
53674;SDS011;39574;50.534;8.500;2022-12-07T10:46:47;17.3;;;8.5;;
53674;SDS011;39574;50.534;8.500;2022-12-07T10:51:45;20.7;;;10.3;;
53674;SDS011;39574;50.534;8.500;2022-12-07T10:56:49;18.8;;;10.1;;
53674;SDS011;39574;50.534;8.500;2022-12-07T11:01:43;16.5;;;9.0;;
53674;SDS011;39574;50.534;8.500;2022-12-07T11:06:41;13.5;;;7.4;;
53674;SDS011;39574;50.534;8.500;2022-12-07T11:11:40;12.8;;;7.2;;
53674;SDS011;39574;50.534;8.500;2022-12-07T11:16:41;10.4;;;5.7;;
53674;SDS011;39574;50.534;8.500;2022-12-07T11:21:38;9.1;;;4.9;;
53674;SDS011;39574;50.534;8.500;2022-12-07T11:26:40;8.6;;;4.2;;
53674;SDS011;39574;50.534;8.500;2022-12-07T11:31:35;7.5;;;3.8;;
53674;SDS011;39574;50.534;8.500;2022-12-07T11:36:35;8.1;;;4.0;;
53674;SDS011;39574;50.534;8.500;2022-12-07T11:41:32;7.7;;;3.8;;
53674;SDS011;39574;50.534;8.500;2022-12-07T11:46:33;7.8;;;3.7;;
53674;SDS011;39574;50.534;8.500;2022-12-07T11:51:29;8.2;;;3.5;;
53674;SDS011;39574;50.534;8.500;2022-12-07T11:56:27;7.2;;;3.1;;
53674;SDS011;39574;50.534;8.500;2022-12-07T12:01:32;8.2;;;3.6;;
53674;SDS011;39574;50.534;8.500;2022-12-07T12:06:24;8.2;;;3.8;;
53674;SDS011;39574;50.534;8.500;2022-12-07T12:11:36;7.8;;;3.9;;
53674;SDS011;39574;50.534;8.500;2022-12-07T12:16:31;7.2;;;3.6;;
53674;SDS011;39574;50.534;8.500;2022-12-07T12:21:22;9.0;;;3.9;;
53674;SDS011;39574;50.534;8.500;2022-12-07T12:26:20;8.1;;;3.7;;
53674;SDS011;39574;50.534;8.500;2022-12-07T12:31:29;8.8;;;4.0;;
53674;SDS011;39574;50.534;8.500;2022-12-07T12:36:19;8.0;;;3.8;;
53674;SDS011;39574;50.534;8.500;2022-12-07T12:41:50;7.7;;;3.7;;
53674;SDS011;39574;50.534;8.500;2022-12-07T12:51:45;7.3;;;3.6;;
53674;SDS011;39574;50.534;8.500;2022-12-07T12:56:18;7.1;;;3.5;;
53674;SDS011;39574;50.534;8.500;2022-12-07T13:01:42;7.5;;;3.4;;
53674;SDS011;39574;50.534;8.500;2022-12-07T13:06:18;8.2;;;3.5;;
53674;SDS011;39574;50.534;8.500;2022-12-07T13:11:17;7.8;;;3.3;;
53674;SDS011;39574;50.534;8.500;2022-12-07T13:16:39;9.7;;;4.2;;
53674;SDS011;39574;50.534;8.500;2022-12-07T13:21:40;9.6;;;4.3;;
53674;SDS011;39574;50.534;8.500;2022-12-07T13:26:15;9.2;;;4.1;;
53674;SDS011;39574;50.534;8.500;2022-12-07T13:31:13;9.6;;;3.9;;
53674;SDS011;39574;50.534;8.500;2022-12-07T13:36:02;8.4;;;3.5;;
53674;SDS011;39574;50.534;8.500;2022-12-07T13:41:02;7.5;;;3.2;;
53674;SDS011;39574;50.534;8.500;2022-12-07T13:46:00;7.5;;;3.5;;
53674;SDS011;39574;50.534;8.500;2022-12-07T13:50:59;8.6;;;3.7;;
53674;SDS011;39574;50.534;8.500;2022-12-07T13:55:58;7.4;;;3.5;;
53674;SDS011;39574;50.534;8.500;2022-12-07T14:00:56;6.4;;;3.4;;
53674;SDS011;39574;50.534;8.500;2022-12-07T14:06:03;6.4;;;3.2;;
53674;SDS011;39574;50.534;8.500;2022-12-07T14:10:54;6.7;;;3.1;;
53674;SDS011;39574;50.534;8.500;2022-12-07T14:15:53;7.7;;;3.2;;
53674;SDS011;39574;50.534;8.500;2022-12-07T14:25:51;8.7;;;3.3;;
53674;SDS011;39574;50.534;8.500;2022-12-07T14:30:49;7.8;;;3.1;;
53674;SDS011;39574;50.534;8.500;2022-12-07T14:35:48;7.5;;;2.9;;
53674;SDS011;39574;50.534;8.500;2022-12-07T14:40:46;7.1;;;2.7;;
53674;SDS011;39574;50.534;8.500;2022-12-07T14:45:45;6.7;;;2.6;;
53674;SDS011;39574;50.534;8.500;2022-12-07T14:50:44;6.5;;;2.7;;
53674;SDS011;39574;50.534;8.500;2022-12-07T14:55:43;6.6;;;2.9;;
53674;SDS011;39574;50.534;8.500;2022-12-07T15:00:41;6.4;;;2.7;;
53674;SDS011;39574;50.534;8.500;2022-12-07T15:05:40;8.1;;;3.3;;
53674;SDS011;39574;50.534;8.500;2022-12-07T15:10:39;7.8;;;3.3;;
53674;SDS011;39574;50.534;8.500;2022-12-07T15:15:37;6.6;;;2.8;;
53674;SDS011;39574;50.534;8.500;2022-12-07T15:20:36;5.9;;;2.6;;
53674;SDS011;39574;50.534;8.500;2022-12-07T15:25:35;5.5;;;2.3;;
53674;SDS011;39574;50.534;8.500;2022-12-07T15:30:34;5.8;;;2.6;;
53674;SDS011;39574;50.534;8.500;2022-12-07T15:35:32;6.3;;;2.6;;
53674;SDS011;39574;50.534;8.500;2022-12-07T15:40:31;5.7;;;2.5;;
53674;SDS011;39574;50.534;8.500;2022-12-07T15:45:30;5.6;;;2.5;;
53674;SDS011;39574;50.534;8.500;2022-12-07T15:50:28;5.1;;;2.3;;
53674;SDS011;39574;50.534;8.500;2022-12-07T15:55:27;4.9;;;2.4;;
53674;SDS011;39574;50.534;8.500;2022-12-07T16:00:26;4.6;;;2.3;;
53674;SDS011;39574;50.534;8.500;2022-12-07T16:05:24;4.6;;;2.1;;
53674;SDS011;39574;50.534;8.500;2022-12-07T16:10:23;5.3;;;2.7;;
53674;SDS011;39574;50.534;8.500;2022-12-07T16:15:22;8.3;;;3.1;;
53674;SDS011;39574;50.534;8.500;2022-12-07T16:20:21;9.6;;;4.1;;
53674;SDS011;39574;50.534;8.500;2022-12-07T16:25:19;9.3;;;4.4;;
53674;SDS011;39574;50.534;8.500;2022-12-07T16:30:18;13.4;;;6.5;;
53674;SDS011;39574;50.534;8.500;2022-12-07T16:35:17;11.1;;;6.0;;
53674;SDS011;39574;50.534;8.500;2022-12-07T16:40:15;9.6;;;5.4;;
53674;SDS011;39574;50.534;8.500;2022-12-07T16:45:14;9.6;;;5.1;;
53674;SDS011;39574;50.534;8.500;2022-12-07T16:50:13;8.9;;;4.7;;
53674;SDS011;39574;50.534;8.500;2022-12-07T17:00:10;8.4;;;4.3;;
53674;SDS011;39574;50.534;8.500;2022-12-07T17:05:09;8.6;;;4.5;;
53674;SDS011;39574;50.534;8.500;2022-12-07T17:10:08;9.2;;;4.8;;
53674;SDS011;39574;50.534;8.500;2022-12-07T17:15:06;8.4;;;4.4;;
53674;SDS011;39574;50.534;8.500;2022-12-07T17:20:05;11.6;;;6.5;;
53674;SDS011;39574;50.534;8.500;2022-12-07T17:25:04;13.0;;;6.8;;
53674;SDS011;39574;50.534;8.500;2022-12-07T17:30:02;12.9;;;6.8;;
53674;SDS011;39574;50.534;8.500;2022-12-07T17:35:01;13.5;;;6.4;;
53674;SDS011;39574;50.534;8.500;2022-12-07T17:39:59;11.8;;;6.1;;
53674;SDS011;39574;50.534;8.500;2022-12-07T17:44:58;12.1;;;6.0;;
53674;SDS011;39574;50.534;8.500;2022-12-07T17:49:57;12.2;;;6.1;;
53674;SDS011;39574;50.534;8.500;2022-12-07T17:54:56;13.2;;;6.3;;
53674;SDS011;39574;50.534;8.500;2022-12-07T17:59:54;14.9;;;7.1;;
53674;SDS011;39574;50.534;8.500;2022-12-07T18:04:53;16.7;;;7.9;;
53674;SDS011;39574;50.534;8.500;2022-12-07T18:09:52;16.6;;;8.1;;
53674;SDS011;39574;50.534;8.500;2022-12-07T18:14:50;15.7;;;7.6;;
53674;SDS011;39574;50.534;8.500;2022-12-07T18:19:49;14.9;;;6.9;;
53674;SDS011;39574;50.534;8.500;2022-12-07T18:24:48;14.8;;;6.8;;
53674;SDS011;39574;50.534;8.500;2022-12-07T18:29:46;15.4;;;7.3;;
53674;SDS011;39574;50.534;8.500;2022-12-07T18:34:45;15.7;;;7.1;;
53674;SDS011;39574;50.534;8.500;2022-12-07T18:39:44;17.9;;;8.6;;
53674;SDS011;39574;50.534;8.500;2022-12-07T18:44:42;20.9;;;9.7;;
53674;SDS011;39574;50.534;8.500;2022-12-07T18:49:41;20.0;;;9.5;;
53674;SDS011;39574;50.534;8.500;2022-12-07T18:54:40;19.1;;;8.6;;
53674;SDS011;39574;50.534;8.500;2022-12-07T18:59:38;15.1;;;7.0;;
53674;SDS011;39574;50.534;8.500;2022-12-07T19:04:37;13.4;;;6.2;;
53674;SDS011;39574;50.534;8.500;2022-12-07T19:09:36;12.9;;;6.4;;
53674;SDS011;39574;50.534;8.500;2022-12-07T19:14:35;14.4;;;6.8;;
53674;SDS011;39574;50.534;8.500;2022-12-07T19:19:38;13.5;;;6.4;;
53674;SDS011;39574;50.534;8.500;2022-12-07T19:24:32;12.1;;;5.9;;
53674;SDS011;39574;50.534;8.500;2022-12-07T19:29:31;12.0;;;5.6;;
53674;SDS011;39574;50.534;8.500;2022-12-07T19:34:29;12.0;;;5.4;;
53674;SDS011;39574;50.534;8.500;2022-12-07T19:39:28;12.3;;;5.4;;
53674;SDS011;39574;50.534;8.500;2022-12-07T19:44:26;12.0;;;5.6;;
53674;SDS011;39574;50.534;8.500;2022-12-07T19:49:26;11.8;;;5.8;;
53674;SDS011;39574;50.534;8.500;2022-12-07T19:54:25;14.2;;;7.3;;
53674;SDS011;39574;50.534;8.500;2022-12-07T19:59:23;13.6;;;7.1;;
53674;SDS011;39574;50.534;8.500;2022-12-07T20:04:22;15.0;;;7.6;;
53674;SDS011;39574;50.534;8.500;2022-12-07T20:09:20;13.6;;;7.2;;
53674;SDS011;39574;50.534;8.500;2022-12-07T20:14:18;13.4;;;7.0;;
53674;SDS011;39574;50.534;8.500;2022-12-07T20:19:17;12.0;;;6.4;;
53674;SDS011;39574;50.534;8.500;2022-12-07T20:24:17;12.1;;;6.2;;
53674;SDS011;39574;50.534;8.500;2022-12-07T20:29:15;12.7;;;6.2;;
53674;SDS011;39574;50.534;8.500;2022-12-07T20:34:13;13.1;;;6.3;;
53674;SDS011;39574;50.534;8.500;2022-12-07T20:39:12;12.9;;;6.1;;
53674;SDS011;39574;50.534;8.500;2022-12-07T20:44:11;12.5;;;5.8;;
53674;SDS011;39574;50.534;8.500;2022-12-07T20:49:09;12.3;;;5.9;;
53674;SDS011;39574;50.534;8.500;2022-12-07T20:54:08;11.6;;;5.6;;
53674;SDS011;39574;50.534;8.500;2022-12-07T20:59:07;10.8;;;5.5;;
53674;SDS011;39574;50.534;8.500;2022-12-07T21:04:05;10.4;;;5.7;;
53674;SDS011;39574;50.534;8.500;2022-12-07T21:09:04;11.3;;;6.0;;
53674;SDS011;39574;50.534;8.500;2022-12-07T21:14:02;11.7;;;5.8;;
53674;SDS011;39574;50.534;8.500;2022-12-07T21:19:02;12.0;;;6.0;;
53674;SDS011;39574;50.534;8.500;2022-12-07T21:24:00;13.6;;;6.9;;
53674;SDS011;39574;50.534;8.500;2022-12-07T21:28:59;13.3;;;6.6;;
53674;SDS011;39574;50.534;8.500;2022-12-07T21:33:57;13.0;;;6.5;;
53674;SDS011;39574;50.534;8.500;2022-12-07T21:38:56;11.7;;;6.0;;
53674;SDS011;39574;50.534;8.500;2022-12-07T21:43:55;10.8;;;5.7;;
53674;SDS011;39574;50.534;8.500;2022-12-07T21:48:54;11.5;;;5.7;;
53674;SDS011;39574;50.534;8.500;2022-12-07T21:53:52;11.6;;;5.7;;
53674;SDS011;39574;50.534;8.500;2022-12-07T21:58:51;11.8;;;5.8;;
53674;SDS011;39574;50.534;8.500;2022-12-07T22:03:49;10.9;;;5.7;;
53674;SDS011;39574;50.534;8.500;2022-12-07T22:08:48;10.5;;;5.8;;
53674;SDS011;39574;50.534;8.500;2022-12-07T22:13:47;10.0;;;5.8;;
53674;SDS011;39574;50.534;8.500;2022-12-07T22:18:45;10.7;;;5.8;;
53674;SDS011;39574;50.534;8.500;2022-12-07T22:23:44;10.9;;;5.8;;
53674;SDS011;39574;50.534;8.500;2022-12-07T22:28:43;12.9;;;6.1;;
53674;SDS011;39574;50.534;8.500;2022-12-07T22:33:41;13.9;;;6.7;;
53674;SDS011;39574;50.534;8.500;2022-12-07T22:38:40;13.9;;;7.1;;
53674;SDS011;39574;50.534;8.500;2022-12-07T22:43:39;13.7;;;7.4;;
53674;SDS011;39574;50.534;8.500;2022-12-07T22:48:37;13.8;;;7.5;;
53674;SDS011;39574;50.534;8.500;2022-12-07T22:53:36;14.6;;;7.5;;
53674;SDS011;39574;50.534;8.500;2022-12-07T22:58:34;15.2;;;7.9;;
53674;SDS011;39574;50.534;8.500;2022-12-07T23:03:33;14.3;;;7.8;;
53674;SDS011;39574;50.534;8.500;2022-12-07T23:08:32;14.7;;;8.0;;
53674;SDS011;39574;50.534;8.500;2022-12-07T23:13:30;14.7;;;8.0;;
53674;SDS011;39574;50.534;8.500;2022-12-07T23:18:29;15.4;;;8.0;;
53674;SDS011;39574;50.534;8.500;2022-12-07T23:23:28;14.7;;;7.9;;
53674;SDS011;39574;50.534;8.500;2022-12-07T23:28:27;14.3;;;8.0;;
53674;SDS011;39574;50.534;8.500;2022-12-07T23:33:25;16.3;;;8.0;;
53674;SDS011;39574;50.534;8.500;2022-12-07T23:38:24;16.5;;;8.2;;
53674;SDS011;39574;50.534;8.500;2022-12-07T23:43:22;16.4;;;8.0;;
53674;SDS011;39574;50.534;8.500;2022-12-07T23:48:21;16.7;;;8.0;;
53674;SDS011;39574;50.534;8.500;2022-12-07T23:53:20;16.3;;;8.1;;
53674;SDS011;39574;50.534;8.500;2022-12-07T23:58:18;15.5;;;8.2;;
